Slave Lake Airport
CYZH : now visible

Airfield :











YOU CAN JOIN US ON...

 
LOGIN :

Register | Disclaimer

   EN    FR    IT 

 









Legend :    VFR   Marginal VFR   IFR   Intensive IFR   Very Intensive IFR
Visi :
Ceiling :
>= 8 km
>= 3000ft
5 to 8 km
1000 to 3000 ft
1500m to 5 km
500 to 1000 ft
800 to 1500m
200 to 500 ft
< 800m
< 200 ft
Symbols :   Thunderstorms  Fog  Heavy snow  Heavy precipitations  Wind > 20 kt






- Airport Elevation : 1912 ft
- IATA code : YZH


CYZH - Slave Lake

CURRENT METAR :
  • 072111Z AUTO 29020G29KT 6SM -RA FEW029 BKN037 OVC045 00/M03 A2979 RMK SLP123

EXPIRED METARs :
  • 072051Z AUTO 29023G30KT 2 1/4SM -RA BKN030 BKN034 OVC044 00/M03 A2978 RMK VIS VRB 1 3/4-3 SLP118
  • 072048Z AUTO 29020G29KT 2 1/2SM -RASN FEW026 BKN030 OVC037 00/M03 A2977 RMK VIS VRB 1 3/4-3 SLP117
  • 072035Z AUTO 30022G37KT 3/4SM -SN -UP BKN033 BKN040 OVC050 00/M03 A2977 RMK VIS VRB 1/2-3 PRESRR SLP113
  • 072022Z AUTO 28026G37KT 4SM HZ FEW030 BKN048 OVC055 01/M04 A2974 RMK PRESRR SLP104
  • 072012Z AUTO 27029G40KT 5SM HZ SCT049 OVC060 02/M05 A2973 RMK SLP099
  • 072000Z AUTO 27023G34KT 9SM SCT041 OVC055 02/M05 A2973 RMK SLP099
  • 071929Z AUTO 25019G28KT 8SM SCT040 SCT050 BKN100 01/M05 A2972 RMK SLP096
  • 071912Z AUTO 26021G34KT 9SM -RA BKN037 BKN046 BKN075 01/M05 A2972 RMK SLP093
  • 071836Z AUTO 27023G33KT 8SM -RA BKN025 BKN033 OVC044 00/M04 A2972 RMK SLP094
  • 071831Z AUTO 27027G33KT 8SM -RASN BKN023 BKN030 BKN037 OVC044 00/M04 A2971 RMK SLP092
  • 071824Z AUTO 27016G22KT 7SM -SN FEW018 BKN024 BKN034 OVC044 M00/M03 A2972 RMK SLP093

TAF TAF CYZH
Valid from the 07 at 19:00 until the 08 at 07:00 UTC


071838Z 0719/0807 28020G30KT P6SM BKN030
TEMPO 0719/0805 1SM -SHSN OVC015
FM080500 28015G25KT P6SM BKN030
TEMPO 0805/0807 BKN020 RMK FCST BASED ON AUTO OBS. NXT FCST BY 080100Z



MET'MAP, your aeronautical weather chart ! - Copyright ORBIFLY December 2007 - Disclaimer

ORBIFLY MET'MAP TEAM :

Programming & Development : Alexandra Zaïnal
Concept & original design : Baudouin d'Aumeries
Assistance for programming : Marc-Olivier Méhu
Technical & hardware support : Manuel Goepfert

Contact : metmap@orbifly.com




SOURCES & CREDITS :

   NOAA       Earth
Advisory